Terminal Aerodrome Forecast
Issued by NWS

Home | Current Version | Previous Version | Text Only | Print | Product List | Glossary On
Versions: 1 2 3 4 5 6 7 8 9 10 11 12 13 14 15 16 17 18 19 20 21 22 23 24 25 26 27 28 29 30 31 32 33 34 35 36 37 38 39 40 41 42
740
FTAK31 PANC 091738
TAFADQ
TAF
PADQ 091738Z 0918/1018 VRB05KT P6SM -SHSNRA SCT020 OVC040
     FM092100 08010KT P6SM VCSH SCT025 BKN040
     FM100000 04015G22KT P6SM BKN020 OVC040
     FM100600 04015G28KT 6SM -RA BR OVC010 WS020/06045KT
     FM101200 04018G29KT 4SM -RA BR OVC007=

USA.gov is the U.S. government's official web portal to all federal, state and local government web resources and services.